createdAt,value
2022-12-15T00:00:20.674Z,25.50
2022-12-15T00:03:06.768Z,24.50
2022-12-15T00:05:52.628Z,23.25
2022-12-15T00:08:38.430Z,23.00
2022-12-15T00:11:24.418Z,20.52
2022-12-15T00:14:10.461Z,20.07
2022-12-15T00:16:56.557Z,19.00
2022-12-15T00:19:42.584Z,17.73
2022-12-15T00:22:28.344Z,17.17
2022-12-15T00:25:14.196Z,16.73
2022-12-15T00:27:59.916Z,17.60
2022-12-15T00:30:49.606Z,17.05
2022-12-15T00:33:36.440Z,17.07
2022-12-15T00:36:22.818Z,18.75
2022-12-15T00:38:50.227Z,17.77
2022-12-15T00:41:18.906Z,17.27
2022-12-15T00:43:46.780Z,17.55
2022-12-15T00:46:33.474Z,18.23
2022-12-15T00:49:02.721Z,17.08
2022-12-15T00:51:48.441Z,16.98
2022-12-15T00:54:34.151Z,16.63
2022-12-15T00:57:19.833Z,16.63
2022-12-15T01:00:05.825Z,16.05
2022-12-15T01:02:51.912Z,16.30
2022-12-15T01:05:38.253Z,16.50
2022-12-15T01:08:24.188Z,15.70
2022-12-15T01:11:10.166Z,16.30
2022-12-15T01:13:56.056Z,15.45
2022-12-15T01:16:42.014Z,16.02
2022-12-15T01:19:27.801Z,15.63
2022-12-15T01:21:55.242Z,15.13
2022-12-15T01:24:22.804Z,15.68
2022-12-15T01:26:50.273Z,15.03
2022-12-15T01:29:17.603Z,15.55
2022-12-15T01:31:44.999Z,15.50
2022-12-15T01:34:20.032Z,15.18
2022-12-15T01:36:47.557Z,14.55
2022-12-15T01:39:15.043Z,14.82
2022-12-15T01:41:42.433Z,14.95
2022-12-15T01:44:36.769Z,14.95
2022-12-15T01:47:05.480Z,13.85
2022-12-15T01:49:33.112Z,15.35
2022-12-15T01:52:04.100Z,14.10
2022-12-15T01:54:48.663Z,14.98
2022-12-15T01:57:24.157Z,14.67
2022-12-15T01:59:59.069Z,13.48
2022-12-15T02:02:32.401Z,13.85
2022-12-15T02:05:04.945Z,12.93
2022-12-15T02:07:32.302Z,12.93
2022-12-15T02:10:02.840Z,13.40
2022-12-15T02:13:07.223Z,12.65
2022-12-15T02:15:47.332Z,13.15
2022-12-15T02:18:28.085Z,13.00
2022-12-15T02:21:13.975Z,12.18
2022-12-15T02:24:06.216Z,13.53
2022-12-15T02:26:45.224Z,13.52
2022-12-15T02:29:29.400Z,13.05
2022-12-15T02:32:21.728Z,13.65
2022-12-15T02:35:06.369Z,13.15
2022-12-15T02:37:37.057Z,13.02
2022-12-15T02:40:07.647Z,13.30
2022-12-15T02:42:40.634Z,13.30
2022-12-15T02:45:11.201Z,12.65
2022-12-15T02:48:04.733Z,13.25
2022-12-15T02:50:48.404Z,13.25
2022-12-15T02:53:31.533Z,13.20
2022-12-15T02:56:22.824Z,13.48
2022-12-15T02:59:32.377Z,13.13
2022-12-15T03:02:06.107Z,12.60
2022-12-15T03:04:33.953Z,13.23
2022-12-15T03:07:05.586Z,12.88
2022-12-15T03:09:33.741Z,13.25
2022-12-15T03:12:01.249Z,12.93
2022-12-15T03:14:28.692Z,13.18
2022-12-15T03:16:56.422Z,12.87
2022-12-15T03:19:23.887Z,12.25
2022-12-15T03:21:51.590Z,12.23
2022-12-15T03:24:19.152Z,12.70
2022-12-15T03:26:50.022Z,11.80
2022-12-15T03:29:17.862Z,11.93
2022-12-15T03:31:45.655Z,11.15
2022-12-15T03:34:17.222Z,11.00
2022-12-15T03:36:44.683Z,10.60
2022-12-15T03:39:12.456Z,10.45
2022-12-15T03:41:41.548Z,10.30
2022-12-15T03:44:08.876Z,10.13
2022-12-15T03:46:36.233Z,10.65
2022-12-15T03:49:03.827Z,10.43
2022-12-15T03:51:31.189Z,11.13
2022-12-15T03:53:59.129Z,11.27
2022-12-15T03:56:28.022Z,11.73
2022-12-15T03:58:58.620Z,11.40
2022-12-15T04:01:28.735Z,10.95
2022-12-15T04:04:01.239Z,10.77
2022-12-15T04:06:33.243Z,11.93
2022-12-15T04:09:03.367Z,10.87
2022-12-15T04:11:33.471Z,12.27
2022-12-15T04:14:01.173Z,12.18
2022-12-15T04:16:28.877Z,12.00
2022-12-15T04:19:15.055Z,13.15
2022-12-15T04:21:42.682Z,13.52
2022-12-15T04:24:28.844Z,13.93
2022-12-15T04:27:15.114Z,16.27
2022-12-15T04:30:01.443Z,15.68
2022-12-15T04:32:50.062Z,17.08
2022-12-15T04:35:36.375Z,17.73
2022-12-15T04:38:23.094Z,17.92
2022-12-15T04:41:09.537Z,17.27
2022-12-15T04:43:55.836Z,17.63
2022-12-15T04:46:42.360Z,17.67
2022-12-15T04:49:28.964Z,17.88
2022-12-15T04:52:15.130Z,17.95
2022-12-15T04:55:01.340Z,17.17
2022-12-15T04:57:48.113Z,17.17
2022-12-15T05:00:34.629Z,15.82
2022-12-15T05:03:25.418Z,16.55
2022-12-15T05:06:12.092Z,16.20
2022-12-15T05:08:58.548Z,16.05
2022-12-15T05:11:44.725Z,16.20
2022-12-15T05:14:30.904Z,15.23
2022-12-15T05:17:17.041Z,15.63
2022-12-15T05:20:03.365Z,16.27
2022-12-15T05:22:49.891Z,16.03
2022-12-15T05:25:36.080Z,16.77
2022-12-15T05:28:25.288Z,17.33
2022-12-15T05:31:11.823Z,17.00
2022-12-15T05:33:39.456Z,16.37
2022-12-15T05:36:07.302Z,18.10
2022-12-15T05:38:35.057Z,17.73
2022-12-15T05:41:02.717Z,19.20
2022-12-15T05:43:30.881Z,20.90
2022-12-15T05:46:03.074Z,20.35
2022-12-15T05:48:30.724Z,19.77
2022-12-15T05:50:58.323Z,20.02
2022-12-15T05:53:25.997Z,19.83
2022-12-15T05:55:53.629Z,20.70
2022-12-15T05:58:21.276Z,20.63
2022-12-15T06:00:48.992Z,19.93
2022-12-15T06:03:16.643Z,20.17
2022-12-15T06:05:44.311Z,19.75
2022-12-15T06:08:11.961Z,20.88
2022-12-15T06:10:39.701Z,19.75
2022-12-15T06:13:07.320Z,20.67
2022-12-15T06:15:34.921Z,21.08
2022-12-15T06:18:02.547Z,20.27
2022-12-15T06:20:30.115Z,19.95
2022-12-15T06:22:57.967Z,20.20
2022-12-15T06:25:25.590Z,20.20
2022-12-15T06:27:58.381Z,19.85
2022-12-15T06:30:28.730Z,18.63
2022-12-15T06:32:58.846Z,20.50
2022-12-15T06:35:28.840Z,20.35
2022-12-15T06:37:56.444Z,20.75
2022-12-15T06:40:24.134Z,20.98
2022-12-15T06:42:51.771Z,20.25
2022-12-15T06:45:19.530Z,20.35
2022-12-15T06:47:48.895Z,20.55
2022-12-15T06:50:16.642Z,21.00
2022-12-15T06:52:44.305Z,21.98
2022-12-15T06:55:12.021Z,22.23
2022-12-15T06:57:39.267Z,22.13
2022-12-15T07:00:07.324Z,23.15
2022-12-15T07:02:36.131Z,21.73
2022-12-15T07:05:03.615Z,21.33
2022-12-15T07:07:31.013Z,22.60
2022-12-15T07:09:58.326Z,22.10
2022-12-15T07:12:25.828Z,20.87
2022-12-15T07:14:53.645Z,21.90
2022-12-15T07:17:23.029Z,22.50
2022-12-15T07:19:50.716Z,23.80
2022-12-15T07:22:18.553Z,21.77
2022-12-15T07:24:46.063Z,22.85
2022-12-15T07:27:13.722Z,22.27
2022-12-15T07:29:41.087Z,21.98
2022-12-15T07:32:08.461Z,22.08
2022-12-15T07:34:35.931Z,22.70
2022-12-15T07:37:03.800Z,22.70
2022-12-15T07:39:32.393Z,22.10
2022-12-15T07:42:03.122Z,22.20
2022-12-15T07:44:32.529Z,22.35
2022-12-15T07:46:59.978Z,22.92
2022-12-15T07:49:27.707Z,21.42
2022-12-15T07:51:58.454Z,21.65
2022-12-15T07:54:26.225Z,21.88
2022-12-15T07:56:53.562Z,22.35
2022-12-15T07:59:20.926Z,22.80
2022-12-15T08:01:49.389Z,21.55
2022-12-15T08:04:16.976Z,21.23
2022-12-15T08:06:44.832Z,21.15
2022-12-15T08:09:12.273Z,21.23
2022-12-15T08:11:39.626Z,21.20
2022-12-15T08:14:13.308Z,20.40
2022-12-15T08:16:42.641Z,20.45
2022-12-15T08:19:13.157Z,21.45
2022-12-15T08:21:42.159Z,20.77
2022-12-15T08:24:10.289Z,20.58
2022-12-15T08:26:38.469Z,20.48
2022-12-15T08:31:54.650Z,20.20
2022-12-15T08:34:22.161Z,20.80
2022-12-15T08:36:49.598Z,19.73
2022-12-15T08:39:17.075Z,20.13
2022-12-15T08:41:44.805Z,20.60
2022-12-15T08:44:12.306Z,19.65
2022-12-15T08:46:39.992Z,20.15
2022-12-15T08:49:08.837Z,20.55
2022-12-15T08:51:36.572Z,19.48
2022-12-15T08:54:04.033Z,19.60
2022-12-15T08:56:31.378Z,19.85
2022-12-15T08:59:01.476Z,19.48
2022-12-15T09:01:32.413Z,20.27
2022-12-15T09:04:01.439Z,20.35
2022-12-15T09:06:31.494Z,19.58
2022-12-15T09:09:02.117Z,20.23
2022-12-15T09:11:30.575Z,19.20
2022-12-15T09:13:58.928Z,20.23
2022-12-15T09:16:27.821Z,19.70
2022-12-15T09:18:57.234Z,19.33
2022-12-15T09:21:27.386Z,20.33
2022-12-15T09:23:58.394Z,19.73
2022-12-15T09:26:26.199Z,19.70
2022-12-15T09:28:57.769Z,19.73
2022-12-15T09:31:33.188Z,20.65
2022-12-15T09:34:01.345Z,20.95
2022-12-15T09:36:30.881Z,21.70
2022-12-15T09:38:59.216Z,20.70
2022-12-15T09:41:30.267Z,21.85
2022-12-15T09:44:06.450Z,20.33
2022-12-15T09:47:02.056Z,21.00
2022-12-15T09:50:01.120Z,20.58
2022-12-15T09:52:41.528Z,20.80
2022-12-15T09:55:32.701Z,19.85
2022-12-15T09:58:11.264Z,19.33
2022-12-15T10:00:52.534Z,20.13
2022-12-15T10:03:34.422Z,19.38
2022-12-15T10:06:21.260Z,19.13
2022-12-15T10:08:50.544Z,19.13
2022-12-15T10:11:34.027Z,19.42
2022-12-15T10:14:24.175Z,18.33
2022-12-15T10:17:12.861Z,17.92
2022-12-15T10:19:42.321Z,18.57
2022-12-15T10:22:18.101Z,19.00
2022-12-15T10:27:46.504Z,19.00
2022-12-15T10:30:20.153Z,18.00
2022-12-15T10:32:59.906Z,18.65
2022-12-15T10:35:33.628Z,18.38
2022-12-15T10:38:04.484Z,18.35
2022-12-15T10:40:53.144Z,18.40
2022-12-15T10:43:37.406Z,19.60
2022-12-15T10:46:05.370Z,17.85
2022-12-15T10:48:35.087Z,19.67
2022-12-15T10:51:31.694Z,18.10
2022-12-15T10:54:04.659Z,18.42
2022-12-15T10:56:34.283Z,18.38
2022-12-15T10:59:22.509Z,18.77
2022-12-15T11:01:50.934Z,19.43
2022-12-15T11:04:30.580Z,19.58
2022-12-15T11:07:03.339Z,19.17
2022-12-15T11:09:38.744Z,19.27
2022-12-15T11:12:42.770Z,19.95
2022-12-15T11:15:22.048Z,20.08
2022-12-15T11:18:05.106Z,19.75
2022-12-15T11:20:40.253Z,20.03
2022-12-15T11:23:25.325Z,20.85
2022-12-15T11:26:16.121Z,19.10
2022-12-15T11:28:48.582Z,20.27
2022-12-15T11:31:36.983Z,19.83
2022-12-15T11:34:18.348Z,19.42
2022-12-15T11:37:07.497Z,18.88
2022-12-15T11:40:10.143Z,19.80
2022-12-15T11:42:56.089Z,17.88
2022-12-15T11:45:29.155Z,17.67
2022-12-15T11:48:04.477Z,18.38
2022-12-15T11:50:41.390Z,18.63
2022-12-15T11:53:32.322Z,18.13
2022-12-15T11:56:02.692Z,18.97
2022-12-15T11:58:42.396Z,19.50
2022-12-15T12:01:31.777Z,18.30
2022-12-15T12:04:17.676Z,17.63
2022-12-15T12:06:50.248Z,17.75
2022-12-15T12:09:39.758Z,17.65
2022-12-15T12:12:23.608Z,17.20
2022-12-15T12:15:00.726Z,17.45
2022-12-15T12:17:51.614Z,16.85
2022-12-15T12:20:23.974Z,17.23
2022-12-15T12:23:05.470Z,15.85
2022-12-15T12:25:44.650Z,15.80
2022-12-15T12:28:18.492Z,15.52
2022-12-15T12:33:41.170Z,15.35
2022-12-15T12:36:13.015Z,13.98
2022-12-15T12:38:46.280Z,12.98
2022-12-15T12:41:24.318Z,13.23
2022-12-15T12:43:53.644Z,13.15
2022-12-15T12:46:25.633Z,11.50
2022-12-15T12:48:56.302Z,12.23
2022-12-15T12:51:58.592Z,11.82
2022-12-15T12:54:35.323Z,11.23
2022-12-15T12:57:26.005Z,11.30
2022-12-15T12:59:58.765Z,10.88
2022-12-15T13:02:26.732Z,10.65
2022-12-15T13:05:13.055Z,10.65
2022-12-15T13:07:41.120Z,10.00
2022-12-15T13:10:08.711Z,10.15
2022-12-15T13:12:52.247Z,9.65
2022-12-15T13:15:26.594Z,9.85
2022-12-15T13:17:56.136Z,9.18
2022-12-15T13:20:25.904Z,9.13
2022-12-15T13:22:54.281Z,9.38
2022-12-15T13:25:35.711Z,9.38
2022-12-15T13:28:16.978Z,9.57
2022-12-15T13:31:06.418Z,9.50
2022-12-15T13:33:34.844Z,12.27
2022-12-15T13:36:02.748Z,11.93
2022-12-15T13:38:50.313Z,12.82
2022-12-15T13:41:25.250Z,14.57
2022-12-15T13:43:54.524Z,15.88
2022-12-15T13:46:27.237Z,16.50
2022-12-15T13:49:04.468Z,17.27
2022-12-15T13:51:33.798Z,18.30
2022-12-15T13:54:01.511Z,18.08
2022-12-15T13:56:39.982Z,18.13
2022-12-15T13:59:17.940Z,18.90
2022-12-15T14:01:51.099Z,19.92
2022-12-15T14:04:19.509Z,14.25
2022-12-15T14:06:57.364Z,13.98
2022-12-15T14:09:32.264Z,14.10
2022-12-15T14:12:00.972Z,16.67
2022-12-15T14:14:30.058Z,17.55
2022-12-15T14:17:08.278Z,18.33
2022-12-15T14:19:40.675Z,19.27
2022-12-15T14:22:28.738Z,19.92
2022-12-15T14:25:04.948Z,19.75
2022-12-15T14:27:34.228Z,20.42
2022-12-15T14:30:22.036Z,20.85
2022-12-15T14:33:01.519Z,20.95
2022-12-15T14:35:31.276Z,21.02
2022-12-15T14:38:00.769Z,21.40
2022-12-15T14:40:29.357Z,22.13
2022-12-15T14:42:57.411Z,22.35
2022-12-15T14:45:26.689Z,21.67
2022-12-15T14:48:39.973Z,21.47
2022-12-15T14:50:46.952Z,20.35
2022-12-15T14:53:17.079Z,19.85
2022-12-15T14:55:45.097Z,20.42
2022-12-15T14:58:34.260Z,19.27
2022-12-15T15:01:03.284Z,18.60
2022-12-15T15:03:04.933Z,14.52
2022-12-15T15:03:39.089Z,18.73
2022-12-15T15:06:29.903Z,17.30
2022-12-15T15:08:57.732Z,17.63
2022-12-15T15:11:30.943Z,17.40
2022-12-15T15:14:03.708Z,17.90
2022-12-15T15:16:31.608Z,16.88
2022-12-15T15:19:01.877Z,16.88
2022-12-15T15:21:30.466Z,16.52
2022-12-15T15:24:10.811Z,17.10
2022-12-15T15:26:40.051Z,16.73
2022-12-15T15:29:26.353Z,16.90
2022-12-15T15:31:54.289Z,16.23
2022-12-15T15:34:21.876Z,17.05
2022-12-15T15:36:49.583Z,16.38
2022-12-15T15:39:18.322Z,16.93
2022-12-15T15:41:46.023Z,16.50
2022-12-15T15:44:14.935Z,16.45
2022-12-15T15:46:52.887Z,16.45
2022-12-15T15:49:21.714Z,16.40
2022-12-15T15:51:49.700Z,16.58
2022-12-15T15:54:18.854Z,15.75
2022-12-15T15:56:46.478Z,16.60
2022-12-15T15:59:16.420Z,16.60
2022-12-15T16:01:45.231Z,15.83
2022-12-15T16:04:13.148Z,16.25
2022-12-15T16:06:46.717Z,16.27
2022-12-15T16:09:15.919Z,16.17
2022-12-15T16:11:44.738Z,16.20
2022-12-15T16:14:15.900Z,16.05
2022-12-15T16:16:43.681Z,16.58
2022-12-15T16:19:14.534Z,16.42
2022-12-15T16:21:43.298Z,17.17
2022-12-15T16:24:14.638Z,17.70
2022-12-15T16:26:45.253Z,17.03
2022-12-15T16:29:18.468Z,16.98
2022-12-15T16:31:46.675Z,17.65
2022-12-15T16:34:16.465Z,16.10
2022-12-15T16:36:45.041Z,15.70
2022-12-15T16:39:23.532Z,15.10
2022-12-15T16:41:52.780Z,15.93
2022-12-15T16:44:20.594Z,15.82
2022-12-15T16:46:48.303Z,15.80
2022-12-15T16:49:16.008Z,15.27
2022-12-15T16:51:46.764Z,15.70
2022-12-15T16:54:22.261Z,16.08
2022-12-15T16:56:49.764Z,14.70
2022-12-15T16:59:35.967Z,15.63
2022-12-15T17:02:24.457Z,15.73
2022-12-15T17:04:52.240Z,15.73
2022-12-15T17:07:20.587Z,16.40
2022-12-15T17:09:51.551Z,15.20
2022-12-15T17:12:19.231Z,15.10
2022-12-15T17:14:46.686Z,15.75
2022-12-15T17:17:19.076Z,15.15
2022-12-15T17:20:20.028Z,14.48
2022-12-15T17:22:34.175Z,15.25
2022-12-15T17:25:01.725Z,15.73
2022-12-15T17:27:30.191Z,15.13
2022-12-15T17:30:00.072Z,14.60
2022-12-15T17:32:27.501Z,14.77
2022-12-15T17:34:54.942Z,15.02
2022-12-15T17:37:22.385Z,14.68
2022-12-15T17:39:51.369Z,13.45
2022-12-15T17:42:20.805Z,14.05
2022-12-15T17:44:49.140Z,13.90
2022-12-15T17:47:19.529Z,13.70
2022-12-15T17:49:47.391Z,13.18
2022-12-15T17:52:34.500Z,13.00
2022-12-15T17:55:03.249Z,13.13
2022-12-15T17:57:33.709Z,12.93
2022-12-15T18:00:02.091Z,12.82
2022-12-15T18:02:33.051Z,12.77
2022-12-15T18:05:00.580Z,13.55
2022-12-15T18:07:28.012Z,13.38
2022-12-15T18:09:55.495Z,13.93
2022-12-15T18:12:26.323Z,14.07
2022-12-15T18:14:54.959Z,14.13
2022-12-15T18:17:23.212Z,14.25
2022-12-15T18:19:50.681Z,13.48
2022-12-15T18:22:24.836Z,13.57
2022-12-15T18:24:54.120Z,14.05
2022-12-15T18:27:24.504Z,13.48
2022-12-15T18:29:52.729Z,14.50
2022-12-15T18:32:22.591Z,13.98
2022-12-15T18:34:50.651Z,13.18
2022-12-15T18:37:20.633Z,12.82
2022-12-15T18:39:48.179Z,13.27
2022-12-15T18:42:18.150Z,13.18
2022-12-15T18:44:53.250Z,12.45
2022-12-15T18:47:23.485Z,12.65
2022-12-15T18:49:51.114Z,11.40
2022-12-15T18:52:21.452Z,11.77
2022-12-15T18:54:54.210Z,11.73
2022-12-15T18:57:33.814Z,12.38
2022-12-15T19:00:14.384Z,12.88
2022-12-15T19:02:42.625Z,12.55
2022-12-15T19:05:27.277Z,12.77
2022-12-15T19:08:10.345Z,13.15
2022-12-15T19:10:50.516Z,12.43
2022-12-15T19:13:20.767Z,12.55
2022-12-15T19:15:48.390Z,12.25
2022-12-15T19:18:40.154Z,12.80
2022-12-15T19:21:49.117Z,12.77
2022-12-15T19:24:44.812Z,12.73
2022-12-15T19:27:13.702Z,12.55
2022-12-15T19:29:41.501Z,12.57
2022-12-15T19:32:09.432Z,13.20
2022-12-15T19:34:37.156Z,12.55
2022-12-15T19:37:10.000Z,12.07
2022-12-15T19:39:38.622Z,12.70
2022-12-15T19:42:14.038Z,11.20
2022-12-15T19:44:41.432Z,12.00
2022-12-15T19:47:16.177Z,11.85
2022-12-15T19:49:43.635Z,11.63
2022-12-15T19:52:18.343Z,11.82
2022-12-15T19:54:49.273Z,11.88
2022-12-15T19:57:18.732Z,12.32
2022-12-15T19:59:46.620Z,11.75
2022-12-15T20:02:19.539Z,11.30
2022-12-15T20:04:48.456Z,11.10
2022-12-15T20:07:25.432Z,10.82
2022-12-15T20:09:52.936Z,10.75
2022-12-15T20:12:20.511Z,10.68
2022-12-15T20:14:48.644Z,11.75
2022-12-15T20:17:16.099Z,10.77
2022-12-15T20:19:44.146Z,10.90
2022-12-15T20:22:17.773Z,10.85
2022-12-15T20:24:46.816Z,11.50
2022-12-15T20:27:17.201Z,11.90
2022-12-15T20:29:44.924Z,13.43
2022-12-15T20:32:20.589Z,12.60
2022-12-15T20:34:48.744Z,12.57
2022-12-15T20:37:28.585Z,11.75
2022-12-15T20:39:57.803Z,12.00
2022-12-15T20:42:25.596Z,11.80
2022-12-15T20:44:54.330Z,11.65
2022-12-15T20:47:25.111Z,12.20
2022-12-15T20:49:54.774Z,11.73
2022-12-15T20:52:25.762Z,12.00
2022-12-15T20:54:55.128Z,11.52
2022-12-15T20:57:22.734Z,10.65
2022-12-15T20:59:50.286Z,10.60
2022-12-15T21:02:20.649Z,10.35
2022-12-15T21:04:49.216Z,10.07
2022-12-15T21:07:17.754Z,9.82
2022-12-15T21:09:45.317Z,9.77
2022-12-15T21:12:22.039Z,9.30
2022-12-15T21:14:49.579Z,9.60
2022-12-15T21:17:19.567Z,9.95
2022-12-15T21:19:47.447Z,9.15
2022-12-15T21:22:21.663Z,8.88
2022-12-15T21:24:52.014Z,10.32
2022-12-15T21:27:20.075Z,9.43
2022-12-15T21:29:52.310Z,9.20
2022-12-15T21:32:21.402Z,10.30
2022-12-15T21:34:49.897Z,10.03
2022-12-15T21:37:28.868Z,8.87
2022-12-15T21:39:56.768Z,9.50
2022-12-15T21:42:24.439Z,9.85
2022-12-15T21:44:52.129Z,14.43
2022-12-15T21:47:26.635Z,11.63
2022-12-15T21:49:55.166Z,11.50
2022-12-15T21:52:25.640Z,10.50
2022-12-15T21:54:53.034Z,10.05
2022-12-15T21:57:22.173Z,9.90
2022-12-15T21:59:49.506Z,9.73
2022-12-15T22:02:26.861Z,9.95
2022-12-15T22:04:55.004Z,9.27
2022-12-15T22:07:22.685Z,8.48
2022-12-15T22:09:50.021Z,8.52
2022-12-15T22:12:22.614Z,7.32
2022-12-15T22:14:50.252Z,7.90
2022-12-15T22:17:21.736Z,8.10
2022-12-15T22:19:49.155Z,7.30
2022-12-15T22:22:16.984Z,7.32
2022-12-15T22:24:44.870Z,7.00
2022-12-15T22:27:19.818Z,7.10
2022-12-15T22:29:48.669Z,6.53
2022-12-15T22:32:17.263Z,6.00
2022-12-15T22:34:44.632Z,5.93
2022-12-15T22:37:12.017Z,5.77
2022-12-15T22:39:39.773Z,5.97
2022-12-15T22:42:07.966Z,6.43
2022-12-15T22:44:37.699Z,6.07
2022-12-15T22:47:09.644Z,5.82
2022-12-15T22:49:39.530Z,6.05
2022-12-15T22:52:16.500Z,5.93
2022-12-15T22:54:46.013Z,6.10
2022-12-15T22:57:24.013Z,5.80
2022-12-15T23:00:02.836Z,6.57
2022-12-15T23:02:37.113Z,6.20
2022-12-15T23:05:05.908Z,5.97
2022-12-15T23:07:34.082Z,6.35
2022-12-15T23:10:20.857Z,6.55
2022-12-15T23:12:48.648Z,6.68
2022-12-15T23:15:34.474Z,6.50
2022-12-15T23:18:01.895Z,6.50
2022-12-15T23:20:29.232Z,7.00
2022-12-15T23:22:56.560Z,7.00
2022-12-15T23:25:23.933Z,6.75
2022-12-15T23:27:51.586Z,6.70
2022-12-15T23:30:19.625Z,6.85
2022-12-15T23:32:46.894Z,6.78
2022-12-15T23:35:14.318Z,7.38
2022-12-15T23:37:41.779Z,6.95
2022-12-15T23:40:09.909Z,6.78
2022-12-15T23:42:37.367Z,6.90
2022-12-15T23:45:05.379Z,6.53
2022-12-15T23:47:32.834Z,7.07
2022-12-15T23:50:00.229Z,6.30
2022-12-15T23:52:28.836Z,6.47
2022-12-15T23:55:15.017Z,6.60
2022-12-15T23:57:42.385Z,5.78
